Time;durP1;ratioP1;P1;durP2;ratioP2;P2;SDS_P1;SDS_P2;PMS_P1;PMS_P2;Temp;Humidity;BMP_temperature;BMP_pressure;BME280_temperature;BME280_humidity;BME280_pressure;Samples;Min_cycle;Max_cycle;Signal;HPM_P1;HPM_P2
2022/11/01 00:00:09;;;;;;;;;;;;;;;;;;10483964;28;19924;-66
2022/11/01 00:05:11;;;;;;;;;;;;;;;;;;10499805;28;19929;-66
2022/11/01 00:10:13;;;;;;;;;;;;;;;;;;10501983;28;19970;-66
2022/11/01 00:15:15;;;;;;;;;;;;;;;;;;10501216;28;20433;-66
2022/11/01 00:20:17;;;;;;;;;;;;;;;;;;10501352;28;19924;-67
2022/11/01 00:25:19;;;;;;;;;;;;;;;;;;10500623;28;19928;-66
2022/11/01 00:30:21;;;;;;;;;;;;;;;;;;10500496;28;19925;-67
2022/11/01 00:35:23;;;;;;;;;;;;;;;;;;10500276;28;19928;-66
2022/11/01 00:40:25;;;;;;;;;;;;;;;;;;10500812;28;19974;-66
2022/11/01 00:45:27;;;;;;;;;;;;;;;;;;10498566;28;19973;-67
2022/11/01 00:50:29;;;;;;;;;;;;;;;;;;10500408;28;19928;-67
2022/11/01 00:55:31;;;;;;;;;;;;;;;;;;10500204;28;19974;-67
2022/11/01 01:00:33;;;;;;;;;;;;;;;;;;10497990;28;20429;-67
2022/11/01 01:05:35;;;;;;;;;;;;;;;;;;10498358;28;19925;-66
2022/11/01 01:10:37;;;;;;;;;;;;;;;;;;10498997;28;20383;-67
2022/11/01 01:15:39;;;;;;;;;;;;;;;;;;10498622;28;19986;-66
2022/11/01 01:20:41;;;;;;;;;;;;;;;;;;10499373;28;19977;-66
2022/11/01 01:25:43;;;;;;;;;;;;;;;;;;10497648;28;20350;-66
2022/11/01 01:30:45;;;;;;;;;;;;;;;;;;10497721;28;19928;-66
2022/11/01 01:35:47;;;;;;;;;;;;;;;;;;10498466;28;19951;-67
2022/11/01 01:40:50;;;;;;;;;;;;;;;;;;10498972;28;19932;-66
2022/11/01 01:45:52;;;;;;;;;;;;;;;;;;10498207;28;19925;-67
2022/11/01 01:50:56;;;;;;;;;;;;;;;;;;10480102;28;20049;-67
2022/11/01 01:55:58;;;;;;;;;;;;;;;;;;10497713;28;19925;-67
2022/11/01 02:01:00;;;;;;;;;;;;;;;;;;10498566;28;19982;-67
2022/11/01 02:06:02;;;;;;;;;;;;;;;;;;10496576;28;19925;-67
2022/11/01 02:11:04;;;;;;;;;;;;;;;;;;10501237;28;19924;-67
2022/11/01 02:16:06;;;;;;;;;;;;;;;;;;10505957;28;19924;-67
2022/11/01 02:21:08;;;;;;;;;;;;;;;;;;10505415;28;19929;-67
2022/11/01 02:26:10;;;;;;;;;;;;;;;;;;10505333;28;19977;-67
2022/11/01 02:31:12;;;;;;;;;;;;;;;;;;10505256;28;20261;-67
2022/11/01 02:36:14;;;;;;;;;;;;;;;;;;10505121;28;19925;-67
2022/11/01 02:41:16;;;;;;;;;;;;;;;;;;10504696;28;19924;-67
2022/11/01 02:51:39;;;;;;;;;;;;;;;;;;10504398;28;19932;-67
2022/11/01 02:56:41;;;;;;;;;;;;;;;;;;10505481;28;19925;-67
2022/11/01 03:01:43;;;;;;;;;;;;;;;;;;10503622;28;19931;-67
2022/11/01 03:06:45;;;;;;;;;;;;;;;;;;10503026;28;19924;-67
2022/11/01 03:11:47;;;;;;;;;;;;;;;;;;10504376;28;19978;-67
2022/11/01 03:16:49;;;;;;;;;;;;;;;;;;10503649;28;19936;-67
2022/11/01 03:21:51;;;;;;;;;;;;;;;;;;10502649;28;20317;-67
2022/11/01 03:26:54;;;;;;;;;;;;;;;;;;10501362;28;19924;-67
2022/11/01 03:31:56;;;;;;;;;;;;;;;;;;10503633;28;19925;-67
2022/11/01 03:36:58;;;;;;;;;;;;;;;;;;10502326;28;19925;-67
2022/11/01 03:42:00;;;;;;;;;;;;;;;;;;10502564;28;19974;-67
2022/11/01 03:47:02;;;;;;;;;;;;;;;;;;10500766;28;19924;-67
2022/11/01 03:52:04;;;;;;;;;;;;;;;;;;10502810;28;19968;-67
2022/11/01 03:57:06;;;;;;;;;;;;;;;;;;10502734;28;19928;-67
2022/11/01 04:02:08;;;;;;;;;;;;;;;;;;10501141;28;19982;-65
2022/11/01 04:07:15;;;;;;;;;;;;;;;;;;10501219;28;19970;-67
2022/11/01 04:12:18;;;;;;;;;;;;;;;;;;10501957;28;19970;-67
2022/11/01 04:22:40;;;;;;;;;;;;;;;;;;10500117;28;20338;-67
2022/11/01 04:27:42;;;;;;;;;;;;;;;;;;10499770;28;20383;-67
2022/11/01 04:32:44;;;;;;;;;;;;;;;;;;10500251;28;19982;-67
2022/11/01 04:37:46;;;;;;;;;;;;;;;;;;10483456;28;19924;-67
2022/11/01 04:42:48;;;;;;;;;;;;;;;;;;10499213;28;19926;-67
2022/11/01 04:47:51;;;;;;;;;;;;;;;;;;10498920;28;19929;-67
2022/11/01 04:52:53;;;;;;;;;;;;;;;;;;10500280;28;19924;-67
2022/11/01 04:57:55;;;;;;;;;;;;;;;;;;10499880;28;20301;-67
2022/11/01 05:02:57;;;;;;;;;;;;;;;;;;10498891;28;19928;-66
2022/11/01 05:07:59;;;;;;;;;;;;;;;;;;10498132;28;20372;-67
2022/11/01 05:13:03;;;;;;;;;;;;;;;;;;10499629;28;19932;-66
2022/11/01 05:18:05;;;;;;;;;;;;;;;;;;10498046;28;20375;-66
2022/11/01 05:23:07;;;;;;;;;;;;;;;;;;10499478;28;19970;-66
2022/11/01 05:28:09;;;;;;;;;;;;;;;;;;10496779;28;20436;-67
2022/11/01 05:33:11;;;;;;;;;;;;;;;;;;10499088;28;19974;-66
2022/11/01 05:38:13;;;;;;;;;;;;;;;;;;10499003;28;19949;-66
2022/11/01 05:43:15;;;;;;;;;;;;;;;;;;10497412;28;20429;-66
2022/11/01 05:48:17;;;;;;;;;;;;;;;;;;10496523;28;19978;-66
2022/11/01 05:53:19;;;;;;;;;;;;;;;;;;10498687;28;19924;-66
2022/11/01 05:58:21;;;;;;;;;;;;;;;;;;10498633;28;19978;-66
2022/11/01 06:03:27;;;;;;;;;;;;;;;;;;10497229;28;19967;-65
2022/11/01 06:08:29;;;;;;;;;;;;;;;;;;10496881;28;19970;-66
2022/11/01 06:13:31;;;;;;;;;;;;;;;;;;10498230;28;19924;-66
2022/11/01 06:18:33;;;;;;;;;;;;;;;;;;10492959;22;19977;-60
2022/11/01 06:23:35;;;;;;;;;;;;;;;;;;10498229;28;19978;-60
2022/11/01 06:28:37;;;;;;;;;;;;;;;;;;10497125;28;20039;-60
2022/11/01 06:33:39;;;;;;;;;;;;;;;;;;10497909;28;20385;-68
2022/11/01 06:38:41;;;;;;;;;;;;;;;;;;10480087;28;19925;-69
2022/11/01 06:43:44;;;;;;;;;;;;;;;;;;10496306;28;19924;-69
2022/11/01 06:48:46;;;;;;;;;;;;;;;;;;10495495;28;19928;-69
2022/11/01 06:53:48;;;;;;;;;;;;;;;;;;10497458;28;19924;-69
2022/11/01 06:58:50;;;;;;;;;;;;;;;;;;10502077;28;19978;-68
2022/11/01 07:03:52;;;;;;;;;;;;;;;;;;10504798;28;19924;-69
2022/11/01 07:08:54;;;;;;;;;;;;;;;;;;10503000;28;20333;-68
2022/11/01 07:13:56;;;;;;;;;;;;;;;;;;10503727;28;20337;-68
2022/11/01 07:18:58;;;;;;;;;;;;;;;;;;10501706;28;19928;-69
2022/11/01 07:24:00;;;;;;;;;;;;;;;;;;10503422;28;20314;-69
2022/11/01 07:29:02;;;;;;;;;;;;;;;;;;10503106;28;19978;-70
2022/11/01 07:34:04;;;;;;;;;;;;;;;;;;10503615;28;19924;-70
2022/11/01 07:39:06;;;;;;;;;;;;;;;;;;10502101;28;20437;-70
2022/11/01 07:44:08;;;;;;;;;;;;;;;;;;10503326;28;19974;-70
2022/11/01 07:49:10;;;;;;;;;;;;;;;;;;10500660;28;20378;-70
2022/11/01 07:54:12;;;;;;;;;;;;;;;;;;10501035;28;19952;-70
2022/11/01 07:59:14;;;;;;;;;;;;;;;;;;10496437;28;19924;-70
2022/11/01 08:04:17;;;;;;;;;;;;;;;;;;10487734;28;20329;-70
2022/11/01 08:09:20;;;;;;;;;;;;;;;;;;10501488;28;19997;-69
2022/11/01 08:14:23;;;;;;;;;;;;;;;;;;10502063;28;19974;-70
2022/11/01 08:19:25;;;;;;;;;;;;;;;;;;10501277;28;19925;-70
2022/11/01 08:24:27;;;;;;;;;;;;;;;;;;10501139;28;19932;-71
2022/11/01 08:29:29;;;;;;;;;;;;;;;;;;10500010;28;20448;-69
2022/11/01 08:34:31;;;;;;;;;;;;;;;;;;10496862;28;19971;-71
2022/11/01 08:39:33;;;;;;;;;;;;;;;;;;10498406;28;20260;-70
2022/11/01 08:44:35;;;;;;;;;;;;;;;;;;10500825;28;19974;-71
2022/11/01 08:49:37;;;;;;;;;;;;;;;;;;10499916;28;19924;-70
2022/11/01 08:54:39;;;;;;;;;;;;;;;;;;10500417;28;19928;-71
2022/11/01 08:59:41;;;;;;;;;;;;;;;;;;10499577;28;19924;-71
2022/11/01 09:04:43;;;;;;;;;;;;;;;;;;10499895;28;19925;-71
2022/11/01 09:09:45;;;;;;;;;;;;;;;;;;10481304;28;20371;-72
2022/11/01 09:14:47;;;;;;;;;;;;;;;;;;10499650;28;19924;-71
2022/11/01 09:19:49;;;;;;;;;;;;;;;;;;10498417;28;19955;-72
2022/11/01 09:24:54;;;;;;;;;;;;;;;;;;10498700;28;20433;-72
2022/11/01 09:29:56;;;;;;;;;;;;;;;;;;10481501;28;19924;-71
2022/11/01 09:34:58;;;;;;;;;;;;;;;;;;10499121;28;19970;-72
2022/11/01 09:40:00;;;;;;;;;;;;;;;;;;10481046;28;19924;-72
2022/11/01 09:45:02;;;;;;;;;;;;;;;;;;10498294;28;20330;-73
2022/11/01 09:50:04;;;;;;;;;;;;;;;;;;10498739;28;19924;-71
2022/11/01 09:55:06;;;;;;;;;;;;;;;;;;10498097;28;20371;-73
2022/11/01 10:00:09;;;;;;;;;;;;;;;;;;10498053;28;19932;-72
2022/11/01 10:05:11;;;;;;;;;;;;;;;;;;10480779;28;19925;-73
2022/11/01 10:10:16;;;;;;;;;;;;;;;;;;10498370;28;19932;-72
2022/11/01 10:15:18;;;;;;;;;;;;;;;;;;10497670;28;20341;-73
2022/11/01 10:20:20;;;;;;;;;;;;;;;;;;10497667;28;19925;-73
2022/11/01 10:25:23;;;;;;;;;;;;;;;;;;10498213;28;19924;-73
2022/11/01 10:30:25;;;;;;;;;;;;;;;;;;10497842;28;19924;-73
2022/11/01 10:35:27;;;;;;;;;;;;;;;;;;10505928;28;19933;-69
2022/11/01 10:40:29;;;;;;;;;;;;;;;;;;10505751;28;19970;-73
2022/11/01 10:45:31;;;;;;;;;;;;;;;;;;10487211;28;20367;-72
2022/11/01 10:50:33;;;;;;;;;;;;;;;;;;10504658;28;19924;-73
2022/11/01 10:55:35;;;;;;;;;;;;;;;;;;10505126;28;19928;-74
2022/11/01 11:00:37;;;;;;;;;;;;;;;;;;10505004;28;19928;-73
2022/11/01 11:05:39;;;;;;;;;;;;;;;;;;10504801;28;19955;-72
2022/11/01 11:10:41;;;;;;;;;;;;;;;;;;10505108;28;19974;-73
2022/11/01 11:15:43;;;;;;;;;;;;;;;;;;10503810;28;19929;-68
2022/11/01 11:20:46;;;;;;;;;;;;;;;;;;10503402;28;20264;-74
2022/11/01 11:25:49;;;;;;;;;;;;;;;;;;10502610;28;19925;-73
2022/11/01 11:30:51;;;;;;;;;;;;;;;;;;10503722;28;19924;-72
2022/11/01 11:35:53;;;;;;;;;;;;;;;;;;10490431;28;19948;-74
2022/11/01 11:40:55;;;;;;;;;;;;;;;;;;10461141;28;19925;-74
2022/11/01 11:45:57;;;;;;;;;;;;;;;;;;10460952;28;20438;-74
2022/11/01 11:51:00;;;;;;;;;;;;;;;;;;10460952;28;20510;-74
2022/11/01 11:56:02;;;;;;;;;;;;;;;;;;10461388;28;19975;-74
2022/11/01 12:01:04;;;;;;;;;;;;;;;;;;10442957;28;19925;-74
2022/11/01 12:06:07;;;;;;;;;;;;;;;;;;10461047;28;19975;-73
2022/11/01 12:11:09;;;;;;;;;;;;;;;;;;10460813;28;19983;-73
2022/11/01 12:16:11;;;;;;;;;;;;;;;;;;10459988;28;20335;-73
2022/11/01 12:21:13;;;;;;;;;;;;;;;;;;10459801;28;19979;-72
2022/11/01 12:26:15;;;;;;;;;;;;;;;;;;10460294;28;19925;-71
2022/11/01 12:31:18;;;;;;;;;;;;;;;;;;10460220;28;19939;-72
2022/11/01 12:36:20;;;;;;;;;;;;;;;;;;10459825;28;19929;-72
2022/11/01 12:41:22;;;;;;;;;;;;;;;;;;10459027;28;19928;-71
2022/11/01 12:46:24;;;;;;;;;;;;;;;;;;10459392;28;19924;-72
2022/11/01 12:51:26;;;;;;;;;;;;;;;;;;10459199;28;19925;-71
2022/11/01 12:56:30;;;;;;;;;;;;;;;;;;10440996;28;19933;-72
2022/11/01 13:01:32;;;;;;;;;;;;;;;;;;10458227;28;20429;-72
2022/11/01 13:06:34;;;;;;;;;;;;;;;;;;10458727;28;19924;-71
2022/11/01 13:11:36;;;;;;;;;;;;;;;;;;10457767;28;20265;-72
2022/11/01 13:16:38;;;;;;;;;;;;;;;;;;10440678;28;19951;-72
2022/11/01 13:21:40;;;;;;;;;;;;;;;;;;10458345;28;19932;-70
2022/11/01 13:26:42;;;;;;;;;;;;;;;;;;10457363;28;20276;-71
2022/11/01 13:31:44;;;;;;;;;;;;;;;;;;10457724;28;19929;-71
2022/11/01 13:36:46;;;;;;;;;;;;;;;;;;10457767;28;19974;-71
2022/11/01 13:41:48;;;;;;;;;;;;;;;;;;10440429;28;19925;-71
2022/11/01 13:46:51;;;;;;;;;;;;;;;;;;10457399;28;19928;-71
2022/11/01 13:51:55;;;;;;;;;;;;;;;;;;10456701;28;19994;-71
2022/11/01 13:56:57;;;;;;;;;;;;;;;;;;10457155;28;19925;-71
2022/11/01 14:01:59;;;;;;;;;;;;;;;;;;10457128;28;19924;-72
2022/11/01 14:07:01;;;;;;;;;;;;;;;;;;10462118;28;19971;-71
2022/11/01 14:12:06;;;;;;;;;;;;;;;;;;10465440;28;19931;-71
2022/11/01 14:17:09;;;;;;;;;;;;;;;;;;10465180;28;20035;-70
2022/11/01 14:22:11;;;;;;;;;;;;;;;;;;10464583;28;19959;-71
2022/11/01 14:27:13;;;;;;;;;;;;;;;;;;10464940;28;19955;-71
2022/11/01 14:32:15;;;;;;;;;;;;;;;;;;10463965;28;19925;-72
2022/11/01 14:37:17;;;;;;;;;;;;;;;;;;10463813;28;19994;-71
2022/11/01 14:42:22;;;;;;;;;;;;;;;;;;10463742;28;19947;-72
2022/11/01 14:47:24;;;;;;;;;;;;;;;;;;10464186;28;19924;-71
2022/11/01 14:52:26;;;;;;;;;;;;;;;;;;10463269;28;20368;-71
2022/11/01 14:57:28;;;;;;;;;;;;;;;;;;10463828;28;19929;-70
2022/11/01 15:02:30;;;;;;;;;;;;;;;;;;10463582;28;19925;-71
2022/11/01 15:07:32;;;;;;;;;;;;;;;;;;10463368;28;20012;-71
2022/11/01 15:12:34;;;;;;;;;;;;;;;;;;10463133;28;19974;-71
2022/11/01 15:17:36;;;;;;;;;;;;;;;;;;10461482;28;19979;-66
2022/11/01 15:22:38;;;;;;;;;;;;;;;;;;10462216;28;19925;-67
2022/11/01 15:27:40;;;;;;;;;;;;;;;;;;10462670;28;19929;-67
2022/11/01 15:32:43;;;;;;;;;;;;;;;;;;10462319;28;19925;-66
2022/11/01 15:37:45;;;;;;;;;;;;;;;;;;10461646;28;20323;-66
2022/11/01 15:42:48;;;;;;;;;;;;;;;;;;10462396;28;19925;-67
2022/11/01 15:47:50;;;;;;;;;;;;;;;;;;10461285;28;19998;-67
2022/11/01 15:52:52;;;;;;;;;;;;;;;;;;10461622;28;19925;-66
2022/11/01 15:57:54;;;;;;;;;;;;;;;;;;10461202;28;20368;-66
2022/11/01 16:02:56;;;;;;;;;;;;;;;;;;10461271;28;19975;-66
2022/11/01 16:07:58;;;;;;;;;;;;;;;;;;10460348;28;20264;-67
2022/11/01 16:13:01;;;;;;;;;;;;;;;;;;10460840;28;19929;-66
2022/11/01 16:18:03;;;;;;;;;;;;;;;;;;10459801;28;19928;-66
2022/11/01 16:23:06;;;;;;;;;;;;;;;;;;10460408;28;19925;-66
2022/11/01 16:28:08;;;;;;;;;;;;;;;;;;10459120;28;19971;-67
2022/11/01 16:33:10;;;;;;;;;;;;;;;;;;10459954;28;19924;-66
2022/11/01 16:38:12;;;;;;;;;;;;;;;;;;10459194;28;19925;-66
2022/11/01 16:43:14;;;;;;;;;;;;;;;;;;10459664;28;19971;-66
2022/11/01 16:48:16;;;;;;;;;;;;;;;;;;10458740;28;20268;-66
2022/11/01 16:53:18;;;;;;;;;;;;;;;;;;10459198;28;19924;-67
2022/11/01 16:58:20;;;;;;;;;;;;;;;;;;10459109;28;19974;-66
2022/11/01 17:03:23;;;;;;;;;;;;;;;;;;10458234;28;20364;-66
2022/11/01 17:08:26;;;;;;;;;;;;;;;;;;10458644;28;19925;-66
2022/11/01 17:13:28;;;;;;;;;;;;;;;;;;10458437;28;19925;-67
2022/11/01 17:18:30;;;;;;;;;;;;;;;;;;10498182;28;20322;-66
2022/11/01 17:23:33;;;;;;;;;;;;;;;;;;10499546;28;19924;-66
2022/11/01 17:28:35;;;;;;;;;;;;;;;;;;10498775;28;20456;-66
2022/11/01 17:33:37;;;;;;;;;;;;;;;;;;10499023;28;19986;-66
2022/11/01 17:38:39;;;;;;;;;;;;;;;;;;10498504;28;19925;-66
2022/11/01 17:43:42;;;;;;;;;;;;;;;;;;10498071;28;19929;-66
2022/11/01 17:48:44;;;;;;;;;;;;;;;;;;10497969;28;19974;-66
2022/11/01 17:53:48;;;;;;;;;;;;;;;;;;10497466;28;21484;-66
2022/11/01 17:58:52;;;;;;;;;;;;;;;;;;10498520;28;19924;-66
2022/11/01 18:03:54;;;;;;;;;;;;;;;;;;10498650;28;19924;-66
2022/11/01 18:08:56;;;;;;;;;;;;;;;;;;10498495;28;19950;-66
2022/11/01 18:13:58;;;;;;;;;;;;;;;;;;10497625;28;20417;-66
2022/11/01 18:19:04;;;;;;;;;;;;;;;;;;10497406;28;19924;-66
2022/11/01 18:24:06;;;;;;;;;;;;;;;;;;10498095;28;19925;-66
2022/11/01 18:29:13;;;;;;;;;;;;;;;;;;10497471;28;20368;-66
2022/11/01 18:34:15;;;;;;;;;;;;;;;;;;10554745;22;19970;-61
2022/11/01 18:39:17;;;;;;;;;;;;;;;;;;10580809;28;19950;-61
2022/11/01 18:44:19;;;;;;;;;;;;;;;;;;10581751;28;19949;-62
2022/11/01 18:49:22;;;;;;;;;;;;;;;;;;10581086;28;20323;-61
2022/11/01 18:54:24;;;;;;;;;;;;;;;;;;10586371;28;19930;-61
2022/11/01 18:59:28;;;;;;;;;;;;;;;;;;10589210;28;19939;-61
2022/11/01 19:04:30;;;;;;;;;;;;;;;;;;10589135;28;19931;-62
2022/11/01 19:09:32;;;;;;;;;;;;;;;;;;10588302;28;20290;-61
2022/11/01 19:14:34;;;;;;;;;;;;;;;;;;10587993;28;19993;-62
2022/11/01 19:19:36;;;;;;;;;;;;;;;;;;10588488;28;19928;-62
2022/11/01 19:24:38;;;;;;;;;;;;;;;;;;10587417;28;19924;-61
2022/11/01 19:29:41;;;;;;;;;;;;;;;;;;10587355;28;20432;-61
2022/11/01 19:34:43;;;;;;;;;;;;;;;;;;10587185;28;19931;-61
2022/11/01 19:39:45;;;;;;;;;;;;;;;;;;10587155;28;19950;-62
2022/11/01 19:44:47;;;;;;;;;;;;;;;;;;10587513;28;19996;-62
2022/11/01 19:49:49;;;;;;;;;;;;;;;;;;10587298;28;19949;-62
2022/11/01 19:54:51;;;;;;;;;;;;;;;;;;10587072;28;19949;-59
2022/11/01 19:59:53;;;;;;;;;;;;;;;;;;10586294;28;19927;-59
2022/11/01 20:04:55;;;;;;;;;;;;;;;;;;10586185;28;20312;-59
2022/11/01 20:09:57;;;;;;;;;;;;;;;;;;10585606;28;20339;-60
2022/11/01 20:14:59;;;;;;;;;;;;;;;;;;10584452;28;20397;-60
2022/11/01 20:20:02;;;;;;;;;;;;;;;;;;10586177;28;19928;-60
2022/11/01 20:25:04;;;;;;;;;;;;;;;;;;10586199;28;19977;-60
2022/11/01 20:30:06;;;;;;;;;;;;;;;;;;10585093;28;19924;-60
2022/11/01 20:35:08;;;;;;;;;;;;;;;;;;10584667;28;20378;-59
2022/11/01 20:40:11;;;;;;;;;;;;;;;;;;10585324;28;19923;-60
2022/11/01 20:45:13;;;;;;;;;;;;;;;;;;10584468;28;20366;-60
2022/11/01 20:50:15;;;;;;;;;;;;;;;;;;10584471;28;19923;-60
2022/11/01 20:55:17;;;;;;;;;;;;;;;;;;10584649;28;19924;-61
2022/11/01 21:00:19;;;;;;;;;;;;;;;;;;10584544;28;19924;-62
2022/11/01 21:05:21;;;;;;;;;;;;;;;;;;10584305;28;19924;-61
2022/11/01 21:10:23;;;;;;;;;;;;;;;;;;10584298;28;19953;-61
2022/11/01 21:15:26;;;;;;;;;;;;;;;;;;10582646;28;20431;-62
2022/11/01 21:20:28;;;;;;;;;;;;;;;;;;10583763;28;19924;-62
2022/11/01 21:25:32;;;;;;;;;;;;;;;;;;10583083;28;20290;-61
2022/11/01 21:30:34;;;;;;;;;;;;;;;;;;10583447;28;19927;-62
2022/11/01 21:35:37;;;;;;;;;;;;;;;;;;10582447;28;20419;-62
2022/11/01 21:40:39;;;;;;;;;;;;;;;;;;10582522;28;19997;-62
2022/11/01 21:45:41;;;;;;;;;;;;;;;;;;10583005;28;19924;-61
2022/11/01 21:50:43;;;;;;;;;;;;;;;;;;10581428;28;19928;-61
2022/11/01 21:55:45;;;;;;;;;;;;;;;;;;10582526;28;19923;-61
2022/11/01 22:00:47;;;;;;;;;;;;;;;;;;10582197;28;20435;-61
2022/11/01 22:05:49;;;;;;;;;;;;;;;;;;10582545;28;19923;-62
2022/11/01 22:10:51;;;;;;;;;;;;;;;;;;10582418;28;19973;-62
2022/11/01 22:15:53;;;;;;;;;;;;;;;;;;10581830;28;19931;-61
2022/11/01 22:20:55;;;;;;;;;;;;;;;;;;10581830;28;19923;-62
2022/11/01 22:25:57;;;;;;;;;;;;;;;;;;10583018;28;20266;-61
2022/11/01 22:30:59;;;;;;;;;;;;;;;;;;10590615;28;19924;-61
2022/11/01 22:36:01;;;;;;;;;;;;;;;;;;10589559;28;19980;-61
2022/11/01 22:41:03;;;;;;;;;;;;;;;;;;10589530;28;20343;-61
2022/11/01 22:46:05;;;;;;;;;;;;;;;;;;10589964;28;19927;-62
2022/11/01 22:51:07;;;;;;;;;;;;;;;;;;10589735;28;19953;-61
2022/11/01 22:56:09;;;;;;;;;;;;;;;;;;10588842;28;20317;-61
2022/11/01 23:01:11;;;;;;;;;;;;;;;;;;10589317;28;19923;-62
2022/11/01 23:06:14;;;;;;;;;;;;;;;;;;10588420;28;20405;-61
2022/11/01 23:16:36;;;;;;;;;;;;;;;;;;10588725;28;19924;-61
2022/11/01 23:21:38;;;;;;;;;;;;;;;;;;10588516;28;19973;-61
2022/11/01 23:26:40;;;;;;;;;;;;;;;;;;10587708;28;20329;-62
2022/11/01 23:31:43;;;;;;;;;;;;;;;;;;10587896;28;19927;-61
2022/11/01 23:36:45;;;;;;;;;;;;;;;;;;10587246;28;20346;-61
2022/11/01 23:41:47;;;;;;;;;;;;;;;;;;10587193;28;19931;-61
2022/11/01 23:46:49;;;;;;;;;;;;;;;;;;10586802;28;19924;-62
2022/11/01 23:51:51;;;;;;;;;;;;;;;;;;10586602;28;19928;-61
2022/11/01 23:56:53;;;;;;;;;;;;;;;;;;10587068;28;19927;-61
